Paynes Point, Illinois
Current Conditions -  °F | °C
As of 11:55 AM on Monday 24 Nov 2014 (Local Time) from KRPJ Reporting Station
Light Snow Light Snow  
Wind Chill: -9°   Ceiling: 700
Heat Index: -2°   Visibility: 1mi
Dew Point: -2°   Wind: 24mph
Humidity: 95%   Direction: 260°W
Pressure: 29.37"   Gusts: 31mph
Location:  41.9937°N, 89.1961°W
Report Text: KRPJ 241755Z AUTO 26021G27KT 1SM -SN OVC007 M01/M02 A2937 RMK AO2 60008 T10151022 10046 21015
Loading
Personal Weather Stations






























Interactive Weather Map New forecast layout! Learn more

10-Day Weather Forecast

Advertisements
Track Severe Weather on mobile